Time;durP1;ratioP1;P1;durP2;ratioP2;P2;SDS_P1;SDS_P2;PMS_P1;PMS_P2;Temp;Humidity;BMP_temperature;BMP_pressure;BME280_temperature;BME280_humidity;BME280_pressure;Samples;Min_cycle;Max_cycle;Signal;HPM_P1;HPM_P2
2023/01/25 00:00:30;;;;;;;37.78;19.17;;;;;;;4.93;55.97;103686.03;4958506;28;120565;-71
2023/01/25 00:02:57;;;;;;;36.92;18.23;;;;;;;4.91;56.07;103682.47;4959799;28;120546;-68
2023/01/25 00:05:24;;;;;;;36.78;17.80;;;;;;;4.91;55.83;103688.59;4961876;28;123972;-68
2023/01/25 00:07:51;;;;;;;36.80;18.42;;;;;;;4.93;55.83;103686.03;4955532;28;123806;-68
2023/01/25 00:10:19;;;;;;;38.15;18.88;;;;;;;4.93;55.74;103696.53;4970731;28;119251;-68
2023/01/25 00:12:46;;;;;;;41.20;19.38;;;;;;;4.94;56.08;103693.06;4954492;28;119760;-71
2023/01/25 00:15:13;;;;;;;40.13;18.95;;;;;;;4.95;55.94;103693.09;4957860;28;124456;-71
2023/01/25 00:17:41;;;;;;;40.17;18.98;;;;;;;4.96;55.93;103686.13;4958882;28;123543;-71
2023/01/25 00:20:08;;;;;;;38.95;19.40;;;;;;;4.98;55.96;103684.41;4958911;28;119886;-70
2023/01/25 00:22:36;;;;;;;39.83;19.27;;;;;;;5.00;56.08;103680.09;4974279;28;118069;-71
2023/01/25 00:25:03;;;;;;;41.25;19.30;;;;;;;4.98;55.72;103674.78;4961308;28;123785;-70
2023/01/25 00:27:30;;;;;;;40.83;19.63;;;;;;;4.94;55.70;103677.31;4978293;28;124387;-70
2023/01/25 00:29:57;;;;;;;41.17;20.52;;;;;;;4.91;55.84;103677.22;4954973;28;118782;-70
2023/01/25 00:32:46;;;;;;;38.25;19.45;;;;;;;4.85;55.75;103672.72;4970083;28;119414;-70
2023/01/25 00:35:14;;;;;;;40.72;18.83;;;;;;;4.81;55.74;103666.50;4974765;28;123370;-70
2023/01/25 00:37:43;;;;;;;42.67;19.90;;;;;;;4.80;55.84;103667.38;4972757;28;123949;-70
2023/01/25 00:40:11;;;;;;;41.83;19.98;;;;;;;4.80;55.78;103661.19;4993216;28;119785;-70
2023/01/25 00:42:39;;;;;;;40.45;19.45;;;;;;;4.79;56.04;103662.94;4986628;28;117892;-70
2023/01/25 00:45:09;;;;;;;38.95;19.60;;;;;;;4.80;55.77;103664.75;4964092;28;124763;-70
2023/01/25 00:47:36;;;;;;;40.80;19.90;;;;;;;4.79;55.94;103655.06;4980895;28;125030;-70
2023/01/25 00:50:05;;;;;;;37.72;18.83;;;;;;;4.77;55.72;103662.03;4960604;28;120219;-70
2023/01/25 00:52:32;;;;;;;38.97;18.45;;;;;;;4.76;55.89;103657.59;4965198;28;120648;-70
2023/01/25 00:55:00;;;;;;;42.17;19.25;;;;;;;4.78;56.02;103655.91;4982031;28;125881;-70
2023/01/25 00:57:27;;;;;;;41.20;19.35;;;;;;;4.80;55.99;103664.75;4977219;28;125006;-71
2023/01/25 00:59:54;;;;;;;39.88;19.40;;;;;;;4.81;55.96;103663.88;4976941;28;118464;-70
2023/01/25 01:02:21;;;;;;;42.65;19.75;;;;;;;4.81;55.82;103660.38;4966150;28;120110;-68
2023/01/25 01:04:51;;;;;;;38.15;19.17;;;;;;;4.81;55.77;103656.00;4949309;28;125707;-71
2023/01/25 01:07:18;;;;;;;39.83;18.52;;;;;;;4.79;56.02;103657.69;4957521;28;123946;-70
2023/01/25 01:09:46;;;;;;;42.58;21.02;;;;;;;4.77;55.74;103648.91;4978087;28;120789;-68
2023/01/25 01:12:13;;;;;;;45.17;20.40;;;;;;;4.77;55.84;103648.03;4968892;28;119419;-68
2023/01/25 01:14:41;;;;;;;47.67;22.00;;;;;;;4.73;55.91;103647.06;4980234;28;123042;-68
2023/01/25 01:17:08;;;;;;;46.40;20.65;;;;;;;4.71;55.76;103654.00;4958537;28;123898;-68
2023/01/25 01:19:35;;;;;;;43.70;20.55;;;;;;;4.68;56.00;103654.81;4980061;28;118697;-70
2023/01/25 01:22:02;;;;;;;44.15;20.40;;;;;;;4.72;56.08;103655.75;4977478;28;120558;-70
2023/01/25 01:24:29;;;;;;;44.58;20.65;;;;;;;4.73;56.03;103652.31;4958590;28;124186;-70
2023/01/25 01:26:56;;;;;;;45.53;20.88;;;;;;;4.71;55.82;103659.25;4958087;28;123826;-70
2023/01/25 01:29:24;;;;;;;43.38;20.17;;;;;;;4.65;55.91;103660.00;4966090;28;120326;-70
2023/01/25 01:31:52;;;;;;;46.45;20.55;;;;;;;4.62;55.81;103659.03;4977851;28;118816;-68
2023/01/25 01:34:23;;;;;;;48.75;21.67;;;;;;;4.60;55.83;103660.72;4970284;28;125241;-67
2023/01/25 01:36:50;;;;;;;47.58;21.48;;;;;;;4.62;56.09;103659.03;4966110;28;124654;-68
2023/01/25 01:39:18;;;;;;;47.58;20.05;;;;;;;4.63;55.89;103645.03;4970261;28;119253;-68
2023/01/25 01:41:45;;;;;;;52.33;22.55;;;;;;;4.64;55.87;103657.31;4965516;28;120779;-71
2023/01/25 01:44:21;;;;;;;52.90;22.20;;;;;;;4.66;55.58;103650.38;4958546;28;123343;-69
2023/01/25 01:46:55;;;;;;;49.95;22.38;;;;;;;4.64;55.88;103647.69;4959852;28;124019;-69
2023/01/25 01:49:27;;;;;;;49.45;21.70;;;;;;;4.64;55.85;103647.69;4961036;28;119131;-69
2023/01/25 01:52:09;;;;;;;50.40;21.58;;;;;;;4.66;56.11;103645.13;4964123;28;120206;-69
2023/01/25 01:54:50;;;;;;;51.60;21.40;;;;;;;4.68;56.27;103653.91;4974411;28;123804;-69
2023/01/25 01:57:25;;;;;;;52.13;22.33;;;;;;;4.70;56.19;103652.22;4981570;28;125081;-69
2023/01/25 02:00:01;;;;;;;45.67;20.48;;;;;;;4.72;56.13;103653.13;4957313;28;120214;-68
2023/01/25 02:02:39;;;;;;;49.67;21.67;;;;;;;4.76;56.20;103646.22;4962881;28;119751;-69
2023/01/25 02:05:16;;;;;;;49.88;22.65;;;;;;;4.78;56.27;103649.78;4976186;28;125001;-69
2023/01/25 02:07:45;;;;;;;;;;;;;;;4.80;56.21;103651.63;4964950;28;122951;-69
2023/01/25 02:10:13;;;;;;;46.47;21.60;;;;;;;4.78;55.80;103645.41;4979305;28;120444;-68
2023/01/25 02:12:43;;;;;;;53.33;21.90;;;;;;;4.74;56.08;103648.81;4978934;28;120395;-69
2023/01/25 02:15:11;;;;;;;54.97;22.08;;;;;;;4.71;55.82;103642.59;4958710;28;124450;-69
2023/01/25 02:17:40;;;;;;;55.25;23.02;;;;;;;4.72;56.19;103645.25;4973153;28;124773;-69
2023/01/25 02:20:25;;;;;;;56.47;22.67;;;;;;;4.70;55.85;103639.09;4962319;28;120277;-69
2023/01/25 02:23:02;;;;;;;52.03;23.00;;;;;;;4.71;55.92;103642.59;4936742;28;119478;-69
2023/01/25 02:25:29;;;;;;;55.42;23.58;;;;;;;4.72;56.05;103640.00;4970989;28;125520;-69
2023/01/25 02:28:03;;;;;;;55.33;23.23;;;;;;;4.74;55.80;103638.31;4957899;28;123572;-69
2023/01/25 02:30:32;;;;;;;52.97;22.42;;;;;;;4.75;55.99;103637.47;4973239;28;119684;-69
2023/01/25 02:32:59;;;;;;;51.17;22.90;;;;;;;4.76;55.80;103630.47;4965224;28;121453;-69
2023/01/25 02:35:44;;;;;;;55.30;23.50;;;;;;;4.74;55.84;103626.94;4951640;28;124406;-69
2023/01/25 02:38:14;;;;;;;57.17;23.63;;;;;;;4.73;55.89;103625.13;4964010;28;124596;-69
2023/01/25 02:40:47;;;;;;;55.22;23.55;;;;;;;4.71;55.83;103619.88;4970341;28;121075;-68
2023/01/25 02:43:16;;;;;;;56.30;23.85;;;;;;;4.69;55.85;103613.72;4964613;28;119017;-68
2023/01/25 02:45:51;;;;;;;58.40;23.73;;;;;;;4.66;55.92;103613.63;4958431;28;126332;-70
2023/01/25 02:48:20;;;;;;;57.60;24.60;;;;;;;4.68;55.81;103614.53;4978041;28;127793;-69
2023/01/25 02:50:47;;;;;;;57.03;24.23;;;;;;;4.68;56.16;103612.78;4960433;28;119459;-70
2023/01/25 02:53:14;;;;;;;57.13;23.67;;;;;;;4.68;55.79;103617.16;4978750;28;118931;-70
2023/01/25 02:55:41;;;;;;;57.17;23.48;;;;;;;4.66;55.91;103613.63;4961145;28;125026;-69
2023/01/25 02:58:08;;;;;;;62.70;25.55;;;;;;;4.64;56.13;103610.94;4944325;28;125919;-70
2023/01/25 03:00:35;;;;;;;56.95;24.60;;;;;;;4.64;56.03;103605.69;4959925;28;120118;-70
2023/01/25 03:03:03;;;;;;;57.88;24.30;;;;;;;4.66;56.20;103611.00;4970601;28;119640;-69
2023/01/25 03:05:30;;;;;;;59.65;25.23;;;;;;;4.68;56.14;103611.91;4973034;28;124262;-69
2023/01/25 03:07:57;;;;;;;60.45;25.55;;;;;;;4.71;56.07;103612.00;4956547;28;123372;-69
2023/01/25 03:10:25;;;;;;;57.70;24.35;;;;;;;4.73;56.12;103607.69;4979352;28;121103;-70
2023/01/25 03:12:54;;;;;;;57.75;24.85;;;;;;;4.78;56.03;103602.53;4962150;28;119634;-69
2023/01/25 03:15:21;;;;;;;52.63;22.83;;;;;;;4.78;55.82;103598.16;4977166;28;124334;-70
2023/01/25 03:17:48;;;;;;;60.22;25.02;;;;;;;4.74;55.97;103606.81;4981001;28;125937;-70
2023/01/25 03:20:17;;;;;;;58.03;23.95;;;;;;;4.72;55.72;103598.00;4970240;28;121300;-69
2023/01/25 03:22:47;;;;;;;64.22;25.80;;;;;;;4.72;56.12;103592.75;4938104;28;121176;-69
2023/01/25 03:25:15;;;;;;;58.83;25.65;;;;;;;4.71;56.00;103601.50;4962701;28;125233;-70
2023/01/25 03:27:53;;;;;;;65.78;26.63;;;;;;;4.70;55.89;103597.09;4966658;28;124532;-70
2023/01/25 03:30:21;;;;;;;62.30;25.23;;;;;;;4.70;56.04;103583.97;4960617;28;117680;-70
2023/01/25 03:32:49;;;;;;;64.43;26.02;;;;;;;4.70;55.91;103581.34;4978700;28;118746;-69
2023/01/25 03:35:18;;;;;;;65.93;26.17;;;;;;;4.72;56.18;103571.75;4990604;28;122633;-69
2023/01/25 03:37:46;;;;;;;64.05;26.08;;;;;;;4.73;56.16;103576.16;4971593;28;123313;-69
2023/01/25 03:40:13;;;;;;;64.63;25.98;;;;;;;4.72;56.00;103571.75;4958606;28;118633;-69
2023/01/25 03:42:44;;;;;;;63.65;27.17;;;;;;;4.72;55.87;103566.50;4948113;28;119558;-69
2023/01/25 03:45:14;;;;;;;58.53;25.25;;;;;;;4.71;55.99;103570.00;4975819;28;125550;-69
2023/01/25 03:47:41;;;;;;;68.25;27.20;;;;;;;4.68;55.78;103564.66;4978005;28;125504;-69
2023/01/25 03:50:09;;;;;;;67.47;26.83;;;;;;;4.65;55.91;103564.59;4979405;28;118800;-69
2023/01/25 03:52:41;;;;;;;66.97;27.85;;;;;;;4.63;55.79;103566.28;4948161;28;118464;-69
2023/01/25 03:55:08;;;;;;;66.75;28.25;;;;;;;4.60;55.89;103576.72;4963553;28;124834;-70
2023/01/25 03:57:40;;;;;;;69.50;26.38;;;;;;;4.58;55.95;103573.19;4964762;28;125357;-69
2023/01/25 04:00:11;;;;;;;66.60;27.10;;;;;;;4.57;56.06;103574.91;4965206;28;118687;-69
2023/01/25 04:02:48;;;;;;;68.25;27.42;;;;;;;4.57;56.03;103577.53;4984542;28;117927;-69
2023/01/25 04:05:18;;;;;;;57.67;24.73;;;;;;;4.57;56.07;103571.41;4967075;28;124252;-69
2023/01/25 04:07:46;;;;;;;65.35;26.23;;;;;;;4.55;55.71;103562.59;4983395;28;125144;-69
2023/01/25 04:10:15;;;;;;;62.05;25.63;;;;;;;4.56;56.24;103559.13;4961070;28;120814;-69
2023/01/25 04:12:45;;;;;;;66.00;25.70;;;;;;;4.57;56.14;103555.66;4981498;28;120677;-69
2023/01/25 04:15:12;;;;;;;64.88;25.77;;;;;;;4.56;55.94;103548.63;4968270;28;123985;-69
2023/01/25 04:17:39;;;;;;;67.35;27.23;;;;;;;4.55;56.16;103552.09;4951199;28;123231;-69
2023/01/25 04:20:21;;;;;;;70.18;27.73;;;;;;;4.55;56.26;103552.09;4984379;28;120054;-70
2023/01/25 04:22:48;;;;;;;67.63;26.42;;;;;;;4.56;56.03;103546.00;4985257;28;118954;-69
2023/01/25 04:25:18;;;;;;;67.70;27.33;;;;;;;4.55;55.79;103537.25;4980217;28;124244;-69
2023/01/25 04:27:50;;;;;;;72.82;27.15;;;;;;;4.55;55.82;103546.84;4984025;28;124803;-69
2023/01/25 04:30:17;;;;;;;73.53;28.80;;;;;;;4.54;56.27;103552.94;4968622;28;118850;-69
2023/01/25 04:32:46;;;;;;;64.93;27.30;;;;;;;4.54;56.03;103555.56;4967062;28;120134;-69
2023/01/25 04:35:39;;;;;;;67.90;26.63;;;;;;;4.56;56.25;103548.63;4964408;28;123988;-70
2023/01/25 04:38:09;;;;;;;64.10;27.55;;;;;;;4.57;55.90;103537.28;4961130;28;124485;-69
2023/01/25 04:40:40;;;;;;;73.05;28.70;;;;;;;4.57;56.06;103539.91;4961518;28;120911;-69
2023/01/25 04:43:08;;;;;;;66.22;26.58;;;;;;;4.54;55.86;103534.56;4981448;28;120297;-69
2023/01/25 04:45:36;;;;;;;66.72;27.25;;;;;;;4.54;55.77;103534.56;4963160;28;124846;-70
2023/01/25 04:48:10;;;;;;;70.05;28.55;;;;;;;4.55;55.84;103536.34;4981219;28;125170;-69
2023/01/25 04:50:44;;;;;;;72.95;27.90;;;;;;;4.55;56.01;103536.34;4961746;28;120465;-69
2023/01/25 04:53:12;;;;;;;71.40;28.00;;;;;;;4.55;56.17;103525.88;4967028;28;118853;-69
2023/01/25 04:55:44;;;;;;;68.95;27.52;;;;;;;4.56;56.22;103527.63;4963369;28;125069;-70
2023/01/25 04:58:13;;;;;;;65.97;26.70;;;;;;;4.56;56.08;103525.00;4983185;28;124502;-70
2023/01/25 05:00:42;;;;;;;67.90;27.45;;;;;;;4.58;56.13;103524.19;4982751;28;121940;-70
2023/01/25 05:03:10;;;;;;;64.93;26.88;;;;;;;4.59;56.23;103518.09;4982477;28;122142;-69
2023/01/25 05:05:37;;;;;;;62.75;25.88;;;;;;;4.56;55.83;103512.78;4979117;28;125352;-69
2023/01/25 05:08:10;;;;;;;63.60;26.10;;;;;;;4.56;56.12;103522.38;4976253;28;125359;-69
2023/01/25 05:10:37;;;;;;;63.47;25.80;;;;;;;4.53;56.19;103523.19;4963362;28;120343;-69
2023/01/25 05:13:27;;;;;;;64.93;25.58;;;;;;;4.53;56.24;103512.69;4968769;28;120071;-70
2023/01/25 05:16:21;;;;;;;62.83;25.98;;;;;;;4.55;56.00;103518.00;4960110;28;125155;-69
2023/01/25 05:18:48;;;;;;;64.15;26.58;;;;;;;4.53;56.06;103522.31;4961060;28;123110;-69
2023/01/25 05:24:08;;;;;;;60.83;25.58;;;;;;;4.44;56.03;103523.84;4963774;28;119943;-69
2023/01/25 05:29:21;;;;;;;68.45;26.42;;;;;;;4.41;55.89;103513.31;4966669;28;122979;-69
2023/01/25 05:31:58;;;;;;;68.45;26.02;;;;;;;4.40;56.40;103515.88;4963874;28;119025;-69
2023/01/25 05:34:26;;;;;;;64.55;26.52;;;;;;;4.39;56.03;103515.00;4973912;28;118797;-70
2023/01/25 05:36:53;;;;;;;65.78;26.35;;;;;;;4.41;55.86;103513.31;4976831;28;123448;-69
2023/01/25 05:39:22;;;;;;;65.15;26.45;;;;;;;4.41;55.81;103518.56;4961849;28;124562;-69
2023/01/25 05:41:50;;;;;;;63.60;26.42;;;;;;;4.39;56.02;103520.25;4977731;28;120323;-69
2023/01/25 05:44:17;;;;;;;60.47;25.73;;;;;;;4.39;55.78;103515.00;4980153;28;120427;-69
2023/01/25 05:46:47;;;;;;;66.63;27.02;;;;;;;4.40;55.95;103511.53;4964898;28;125278;-69
2023/01/25 05:49:17;;;;;;;63.70;26.08;;;;;;;4.40;56.14;103511.53;4965123;28;125558;-69
2023/01/25 05:51:45;;;;;;;66.00;26.20;;;;;;;4.40;56.04;103511.53;4958769;28;119633;-69
2023/01/25 05:54:18;;;;;;;65.70;26.98;;;;;;;4.40;56.07;103514.13;4966296;28;119792;-69
2023/01/25 05:56:52;;;;;;;67.85;26.42;;;;;;;4.41;55.90;103513.31;4981070;28;124935;-69
2023/01/25 05:59:19;;;;;;;66.80;27.63;;;;;;;4.42;56.24;103509.81;4947237;28;125084;-69
2023/01/25 06:01:47;;;;;;;68.63;26.75;;;;;;;4.39;55.82;103509.75;4966262;28;118664;-69
2023/01/25 06:04:15;;;;;;;67.30;27.50;;;;;;;4.39;55.96;103520.25;4965926;28;120897;-69
2023/01/25 06:06:43;;;;;;;67.95;27.58;;;;;;;4.38;55.78;103515.84;4965195;28;127410;-69
2023/01/25 06:09:11;;;;;;;70.07;28.70;;;;;;;4.39;55.98;103512.38;4965567;28;123913;-69
2023/01/25 06:11:43;;;;;;;72.30;28.35;;;;;;;4.39;56.03;103512.38;4974304;28;120509;-71
2023/01/25 06:14:11;;;;;;;69.53;27.60;;;;;;;4.40;55.97;103516.75;4945804;28;119043;-70
2023/01/25 06:16:38;;;;;;;74.45;27.95;;;;;;;4.40;56.06;103513.25;4963903;28;123748;-70
2023/01/25 06:19:28;;;;;;;76.07;28.20;;;;;;;4.41;56.14;103513.31;4967197;28;123894;-69
2023/01/25 06:22:01;;;;;;;79.00;30.02;;;;;;;4.40;55.90;103511.53;4961294;28;119702;-70
2023/01/25 06:24:28;;;;;;;76.07;29.50;;;;;;;4.35;55.91;103507.91;4948700;28;119830;-70
2023/01/25 06:26:55;;;;;;;77.97;29.70;;;;;;;4.33;55.86;103509.59;4966311;28;124742;-70
2023/01/25 06:29:22;;;;;;;72.93;28.70;;;;;;;4.32;55.84;103502.59;4964508;28;125178;-68
2023/01/25 06:31:49;;;;;;;73.28;29.48;;;;;;;4.32;55.93;103507.84;4947656;28;120561;-70
2023/01/25 06:34:17;;;;;;;75.32;28.30;;;;;;;4.31;56.04;103500.81;4966553;28;119029;-69
2023/01/25 06:36:44;;;;;;;79.50;30.55;;;;;;;4.30;55.78;103504.28;4961757;28;125134;-69
2023/01/25 06:39:11;;;;;;;80.75;30.75;;;;;;;4.28;55.83;103496.38;4964015;28;124651;-69
2023/01/25 06:41:39;;;;;;;82.47;30.60;;;;;;;4.28;56.23;103503.38;4981236;28;121599;-69
2023/01/25 06:44:07;;;;;;;82.68;30.05;;;;;;;4.27;56.10;103493.72;4962096;28;120957;-69
2023/01/25 06:46:34;;;;;;;80.20;30.38;;;;;;;4.26;55.97;103502.44;4966426;28;123879;-70
2023/01/25 06:49:01;;;;;;;76.95;29.92;;;;;;;4.21;55.87;103504.94;4962212;28;123311;-69
2023/01/25 06:51:28;;;;;;;83.97;30.85;;;;;;;4.21;55.87;103511.94;4973217;28;118637;-70
2023/01/25 06:53:56;;;;;;;87.65;31.60;;;;;;;4.18;55.92;103509.22;4964798;28;121387;-69
2023/01/25 06:56:23;;;;;;;83.90;29.70;;;;;;;4.16;55.78;103505.69;4961174;28;123548;-69
2023/01/25 06:58:50;;;;;;;89.97;31.77;;;;;;;4.14;55.85;103507.38;4980882;28;125729;-70
2023/01/25 07:01:21;;;;;;;88.90;31.48;;;;;;;4.14;56.03;103507.38;4966100;28;119975;-69
2023/01/25 07:03:50;;;;;;;89.03;31.77;;;;;;;4.15;56.04;103503.94;4959899;28;120116;-70
2023/01/25 07:06:18;;;;;;;88.88;32.35;;;;;;;4.17;56.15;103502.22;4963959;28;125812;-69
2023/01/25 07:08:46;;;;;;;78.20;27.02;;;;;;;4.19;56.04;103500.53;4964066;28;123731;-69
2023/01/25 07:11:13;;;;;;;82.63;27.90;;;;;;;4.22;56.14;103500.56;4975914;28;121032;-70
2023/01/25 07:13:44;;;;;;;78.30;27.95;;;;;;;4.23;55.98;103497.13;4964623;28;120007;-69
2023/01/25 07:16:17;;;;;;;89.65;29.33;;;;;;;4.24;55.97;103501.53;4963492;28;123998;-70
2023/01/25 07:18:45;;;;;;;90.88;29.20;;;;;;;4.24;55.95;103504.16;4964781;28;125175;-70
2023/01/25 07:21:15;;;;;;;95.00;31.08;;;;;;;4.23;56.20;103497.13;4964532;28;119348;-70
2023/01/25 07:23:43;;;;;;;96.72;30.77;;;;;;;4.24;56.11;103493.66;4975592;28;120970;-70
2023/01/25 07:26:22;;;;;;;97.55;31.83;;;;;;;4.23;55.86;103491.88;4980571;28;123108;-69
2023/01/25 07:28:51;;;;;;;94.80;30.67;;;;;;;4.24;56.05;103484.03;4962562;28;123894;-69
2023/01/25 07:31:19;;;;;;;86.38;29.55;;;;;;;4.25;56.20;103490.16;4959314;28;120220;-71
2023/01/25 07:33:51;;;;;;;84.75;30.40;;;;;;;4.24;56.11;103485.78;4959693;28;120292;-72
2023/01/25 07:36:19;;;;;;;88.85;29.75;;;;;;;4.22;55.78;103484.84;4951435;28;124310;-71
2023/01/25 07:38:46;;;;;;;96.53;33.00;;;;;;;4.20;55.91;103481.28;4954660;28;123843;-72
2023/01/25 07:41:15;;;;;;;93.72;32.63;;;;;;;4.19;56.13;103475.16;4957972;28;119442;-71
2023/01/25 07:43:42;;;;;;;97.40;33.92;;;;;;;4.19;56.08;103474.28;4958549;28;118235;-71
2023/01/25 07:46:12;;;;;;;91.40;32.63;;;;;;;4.20;56.17;103476.06;4952958;28;125486;-70
2023/01/25 07:48:44;;;;;;;97.18;33.95;;;;;;;4.21;56.00;103477.84;4952409;28;125222;-72
2023/01/25 07:51:11;;;;;;;105.25;34.28;;;;;;;4.20;56.10;103479.59;4972830;28;118801;-71
2023/01/25 07:53:39;;;;;;;93.00;32.08;;;;;;;4.20;56.08;103476.06;4973536;28;118791;-72
2023/01/25 07:56:08;;;;;;;86.03;32.08;;;;;;;4.19;56.07;103479.53;4970337;28;123029;-72
2023/01/25 07:58:36;;;;;;;95.93;32.80;;;;;;;4.17;55.94;103481.25;4971030;28;124099;-72
2023/01/25 08:01:12;;;;;;;87.13;31.45;;;;;;;4.14;56.15;103478.53;4954170;28;120253;-72
2023/01/25 08:03:39;;;;;;;95.35;32.03;;;;;;;4.15;56.14;103480.31;4952627;28;119016;-71
2023/01/25 08:06:07;;;;;;;89.45;33.17;;;;;;;4.16;56.03;103489.94;4955535;28;124751;-72
2023/01/25 08:08:41;;;;;;;91.07;31.13;;;;;;;4.16;56.26;103482.94;4965932;28;124853;-71
2023/01/25 08:11:19;;;;;;;87.75;32.17;;;;;;;4.16;56.08;103468.97;4965965;28;119421;-72
2023/01/25 08:13:47;;;;;;;88.93;32.88;;;;;;;4.17;56.27;103465.50;4966593;28;120392;-72
2023/01/25 08:16:16;;;;;;;94.32;33.45;;;;;;;4.16;56.11;103471.59;4960609;28;124063;-72
2023/01/25 08:18:48;;;;;;;85.63;30.40;;;;;;;4.13;56.13;103469.78;4975142;28;124814;-72
2023/01/25 08:21:16;;;;;;;93.40;32.95;;;;;;;4.15;55.87;103467.22;4964074;28;120424;-72
2023/01/25 08:23:44;;;;;;;94.45;32.60;;;;;;;4.17;55.93;103468.13;4958700;28;120195;-72
2023/01/25 08:26:13;;;;;;;90.53;31.45;;;;;;;4.18;56.17;103467.25;4959116;28;124491;-72
2023/01/25 08:28:40;;;;;;;91.50;32.35;;;;;;;4.18;55.93;103468.16;4958029;28;123855;-71
2023/01/25 08:31:14;;;;;;;82.13;28.73;;;;;;;4.18;56.12;103464.63;4960255;28;118466;-72
2023/01/25 08:33:43;;;;;;;81.13;30.30;;;;;;;4.19;56.39;103463.81;4965113;28;119347;-72
2023/01/25 08:36:10;;;;;;;72.88;27.90;;;;;;;4.20;56.22;103460.31;4967513;28;124517;-72
2023/01/25 08:38:38;;;;;;;83.45;37.20;;;;;;;4.20;56.06;103460.31;4971233;28;124018;-71
2023/01/25 08:41:16;;;;;;;75.93;30.48;;;;;;;4.18;56.09;103451.53;4963678;28;120184;-71
2023/01/25 08:43:46;;;;;;;89.47;32.25;;;;;;;4.20;56.32;103460.31;4960225;28;119535;-72
2023/01/25 08:46:17;;;;;;;86.65;32.83;;;;;;;4.21;56.12;103467.34;4983519;28;125279;-72
2023/01/25 08:48:44;;;;;;;75.72;30.63;;;;;;;4.22;55.93;103456.91;4968158;28;123725;-72
2023/01/25 08:51:12;;;;;;;84.05;31.20;;;;;;;4.22;56.29;103456.91;4963606;28;118309;-71
2023/01/25 08:53:40;;;;;;;82.15;32.40;;;;;;;4.24;56.15;103462.19;4953852;28;119549;-71
2023/01/25 08:56:09;;;;;;;82.88;33.08;;;;;;;4.23;56.04;103460.41;4956488;28;123955;-72
2023/01/25 08:58:42;;;;;;;80.43;32.65;;;;;;;4.23;56.38;103455.16;4961956;28;125457;-72
2023/01/25 09:01:11;;;;;;;75.10;31.35;;;;;;;4.23;56.38;103456.03;4954800;28;119814;-72
2023/01/25 09:03:44;;;;;;;73.90;30.90;;;;;;;4.25;56.17;103461.31;4956145;28;119712;-72
2023/01/25 09:06:12;;;;;;;86.70;33.92;;;;;;;4.27;56.38;103443.88;4964421;28;124531;-72
2023/01/25 09:08:39;;;;;;;87.40;32.60;;;;;;;4.29;56.15;103439.53;4968775;28;123745;-71
2023/01/25 09:11:09;;;;;;;83.57;33.50;;;;;;;4.30;56.38;103441.34;4967112;28;120107;-71
2023/01/25 09:13:36;;;;;;;81.25;32.65;;;;;;;4.29;56.39;103434.28;4966344;28;119970;-71
2023/01/25 09:16:12;;;;;;;75.70;31.33;;;;;;;4.30;56.13;103436.09;4949437;28;124967;-70
2023/01/25 09:18:42;;;;;;;83.25;31.45;;;;;;;4.30;56.24;103436.09;4967769;28;123865;-72
2023/01/25 09:21:15;;;;;;;79.32;32.00;;;;;;;4.32;56.31;103429.13;4965665;28;120485;-71
2023/01/25 09:23:43;;;;;;;85.13;33.08;;;;;;;4.32;56.08;103429.13;4960385;28;119913;-71
2023/01/25 09:26:31;;;;;;;84.70;31.58;;;;;;;4.33;56.38;103436.13;4966720;28;125163;-71
2023/01/25 09:28:58;;;;;;;84.22;32.40;;;;;;;4.30;56.16;103436.09;4948179;28;124057;-71
2023/01/25 09:31:25;;;;;;;77.72;31.90;;;;;;;4.30;56.32;103433.47;4959685;28;119337;-71
2023/01/25 09:34:01;;;;;;;93.82;33.63;;;;;;;4.29;56.12;103439.53;4978057;28;119441;-71
2023/01/25 09:36:28;;;;;;;75.00;30.63;;;;;;;4.28;56.29;103443.03;4963101;28;124520;-71
2023/01/25 09:38:56;;;;;;;79.50;33.72;;;;;;;4.28;56.05;103445.66;4958507;28;122646;-71
2023/01/25 09:41:42;;;;;;;74.95;31.10;;;;;;;4.28;56.29;103432.53;4977456;28;119875;-71
2023/01/25 09:44:27;;;;;;;;;;;;;;;4.25;56.21;103438.59;4959277;28;119002;-71
2023/01/25 09:46:57;;;;;;;76.60;31.08;;;;;;;4.21;56.01;103420.13;4977862;28;124418;-71
2023/01/25 09:50:02;;;;;;;74.20;31.67;;;;;;;4.21;56.34;103428.00;4959046;28;123640;-71
2023/01/25 09:53:06;;;;;;;87.68;31.23;;;;;;;4.21;56.51;103425.38;4959600;28;120660;-71
2023/01/25 09:55:34;;;;;;;83.18;32.40;;;;;;;4.26;56.24;103418.50;4966369;28;119964;-71
2023/01/25 09:58:03;;;;;;;85.97;33.33;;;;;;;4.27;56.27;103430.75;4962045;28;125296;-71
2023/01/25 10:00:46;;;;;;;74.25;29.90;;;;;;;4.27;56.28;103425.50;4961402;28;123225;-72
2023/01/25 10:03:31;;;;;;;78.95;32.10;;;;;;;4.25;56.05;103432.47;4953553;28;119807;-71
2023/01/25 10:06:01;;;;;;;83.32;32.60;;;;;;;4.26;56.41;103429.00;4959897;28;121370;-71
2023/01/25 10:09:02;;;;;;;82.15;31.70;;;;;;;4.25;56.07;103427.22;4976284;28;125673;-71
2023/01/25 10:11:31;;;;;;;80.07;30.42;;;;;;;4.26;56.21;103429.00;4962703;28;123483;-71
2023/01/25 10:13:59;;;;;;;78.60;30.77;;;;;;;4.28;56.25;103429.91;4963568;28;119202;-71
2023/01/25 10:16:53;;;;;;;83.25;31.30;;;;;;;4.28;56.06;103416.81;4959820;28;119255;-71
2023/01/25 10:19:38;;;;;;;75.97;29.50;;;;;;;4.28;56.42;103406.31;4962060;28;124586;-71
2023/01/25 10:22:21;;;;;;;89.15;31.67;;;;;;;4.30;56.36;103407.22;4956086;28;124240;-72
2023/01/25 10:25:10;;;;;;;70.50;28.63;;;;;;;4.32;56.25;103408.16;4966471;28;119958;-71
2023/01/25 10:28:07;;;;;;;85.78;32.53;;;;;;;4.33;56.26;103399.41;4960188;28;118857;-72
2023/01/25 10:31:04;;;;;;;86.47;31.58;;;;;;;4.36;56.29;103402.09;4955477;28;123676;-70
2023/01/25 10:33:37;;;;;;;84.18;30.83;;;;;;;4.38;56.22;103403.03;4963039;28;124843;-71
2023/01/25 10:36:11;;;;;;;80.77;31.97;;;;;;;4.41;56.45;103397.84;4951223;28;119957;-71
2023/01/25 10:38:41;;;;;;;86.25;32.60;;;;;;;4.45;56.51;103389.19;4955496;28;119845;-72
2023/01/25 10:41:25;;;;;;;88.15;32.20;;;;;;;4.49;56.29;103384.91;4962122;28;125337;-71
2023/01/25 10:46:42;;;;;;;90.50;32.97;;;;;;;4.53;55.95;103380.59;4952228;28;119576;-72
2023/01/25 10:49:28;;;;;;;90.75;30.60;;;;;;;4.49;56.03;103364.78;4967711;28;120263;-73
2023/01/25 10:52:10;;;;;;;79.85;33.40;;;;;;;4.51;55.93;103367.44;4960337;28;124422;-70
2023/01/25 10:54:37;;;;;;;83.80;32.88;;;;;;;4.54;56.35;103350.88;4954985;28;123693;-70
2023/01/25 10:57:13;;;;;;;86.80;32.00;;;;;;;4.55;56.18;103347.41;4947066;28;119383;-70
2023/01/25 10:59:44;;;;;;;81.72;31.50;;;;;;;4.56;56.05;103338.66;4965534;28;119578;-70
2023/01/25 11:02:43;;;;;;;89.93;31.67;;;;;;;4.56;56.05;103333.41;4963232;28;123990;-72
2023/01/25 11:05:31;;;;;;;92.85;32.50;;;;;;;4.57;56.28;103324.69;4964086;28;123244;-71
2023/01/25 11:08:18;;;;;;;80.95;31.20;;;;;;;4.57;56.46;103324.69;4964749;28;119335;-70
2023/01/25 11:10:45;;;;;;;82.45;31.17;;;;;;;4.58;56.29;103315.97;4961918;28;118992;-72
2023/01/25 11:13:16;;;;;;;89.13;31.38;;;;;;;4.60;56.39;103314.28;4965511;28;124511;-71
2023/01/25 11:15:45;;;;;;;85.18;30.70;;;;;;;4.63;56.09;103309.06;4963099;28;124906;-70
2023/01/25 11:18:18;;;;;;;92.85;32.65;;;;;;;4.65;56.33;103302.09;4980052;28;120585;-73
2023/01/25 11:20:46;;;;;;;85.25;31.75;;;;;;;4.65;56.17;103302.09;4960515;28;118809;-71
2023/01/25 11:23:24;;;;;;;88.88;31.63;;;;;;;4.65;56.08;103294.22;4975667;28;125536;-73
2023/01/25 11:25:52;;;;;;;84.25;33.00;;;;;;;4.67;56.07;103300.38;4960236;28;122875;-76
2023/01/25 11:28:22;;;;;;;79.70;32.70;;;;;;;4.66;55.96;103293.38;4958914;28;121577;-78
2023/01/25 11:30:52;;;;;;;85.85;31.83;;;;;;;4.60;55.80;103282.78;4982072;28;120207;-77
2023/01/25 11:33:21;;;;;;;82.85;30.85;;;;;;;4.59;56.09;103270.50;4961205;28;124557;-76
2023/01/25 11:35:54;;;;;;;79.88;31.58;;;;;;;4.60;55.95;103267.91;4974755;28;125454;-76